createdAt,value
2022-11-03T00:01:40.756Z,7.90
2022-11-03T00:04:09.742Z,4.50
2022-11-03T00:06:37.973Z,7.07
2022-11-03T00:09:08.688Z,8.15
2022-11-03T00:11:37.938Z,5.03
2022-11-03T00:14:06.414Z,7.32
2022-11-03T00:16:34.266Z,4.72
2022-11-03T00:19:01.782Z,7.25
2022-11-03T00:21:29.885Z,5.53
2022-11-03T00:23:57.650Z,4.68
2022-11-03T00:26:28.558Z,8.18
2022-11-03T00:28:57.717Z,7.82
2022-11-03T00:31:27.375Z,4.82
2022-11-03T00:33:56.095Z,10.00
2022-11-03T00:36:25.569Z,6.18
2022-11-03T00:38:53.108Z,5.82
2022-11-03T00:41:22.193Z,5.68
2022-11-03T00:43:52.355Z,5.20
2022-11-03T00:46:21.531Z,5.10
2022-11-03T00:48:49.510Z,8.13
2022-11-03T00:51:19.202Z,4.93
2022-11-03T00:53:48.394Z,6.80
2022-11-03T00:56:18.474Z,6.95
2022-11-03T00:58:46.766Z,4.38
2022-11-03T01:01:18.011Z,6.07
2022-11-03T01:04:08.665Z,3.88
2022-11-03T01:06:52.066Z,6.18
2022-11-03T01:09:20.479Z,4.68
2022-11-03T01:11:55.110Z,5.03
2022-11-03T01:14:23.052Z,5.30
2022-11-03T01:16:52.141Z,4.43
2022-11-03T01:19:19.821Z,5.22
2022-11-03T01:21:47.339Z,8.68
2022-11-03T01:24:14.860Z,5.05
2022-11-03T01:27:37.367Z,6.10
2022-11-03T01:30:05.557Z,4.93
2022-11-03T01:32:34.536Z,4.50
2022-11-03T01:35:02.309Z,7.95
2022-11-03T01:37:29.992Z,5.38
2022-11-03T01:39:57.634Z,4.43
2022-11-03T01:42:25.322Z,4.05
2022-11-03T01:44:52.943Z,5.05
2022-11-03T01:47:25.511Z,4.40
2022-11-03T01:50:00.265Z,7.35
2022-11-03T01:52:33.970Z,4.22
2022-11-03T01:55:05.578Z,4.65
2022-11-03T01:57:38.498Z,4.03
2022-11-03T02:00:07.902Z,6.97
2022-11-03T02:02:35.979Z,4.50
2022-11-03T02:05:07.259Z,6.07
2022-11-03T02:11:38.989Z,3.97
2022-11-03T02:14:06.458Z,4.65
2022-11-03T02:16:34.185Z,4.80
2022-11-03T02:19:03.381Z,4.90
2022-11-03T02:21:41.418Z,4.90
2022-11-03T02:24:14.842Z,6.85
2022-11-03T02:26:48.191Z,5.30
2022-11-03T02:29:17.430Z,4.60
2022-11-03T02:31:51.573Z,6.80
2022-11-03T02:34:24.586Z,5.00
2022-11-03T02:36:57.550Z,3.15
2022-11-03T02:39:29.870Z,5.68
2022-11-03T02:42:01.535Z,5.20
2022-11-03T02:44:30.206Z,4.97
2022-11-03T02:47:01.619Z,5.95
2022-11-03T02:49:29.390Z,7.93
2022-11-03T02:52:01.546Z,6.70
2022-11-03T02:54:34.871Z,5.60
2022-11-03T02:57:08.858Z,4.22
2022-11-03T02:59:55.188Z,4.15
2022-11-03T03:02:28.695Z,5.50
2022-11-03T03:05:01.815Z,4.93
2022-11-03T03:07:32.722Z,4.40
2022-11-03T03:10:03.925Z,6.15
2022-11-03T03:12:35.946Z,3.08
2022-11-03T03:15:05.990Z,7.80
2022-11-03T03:17:39.733Z,4.28
2022-11-03T03:20:14.162Z,5.82
2022-11-03T03:22:47.436Z,5.57
2022-11-03T03:25:22.781Z,6.18
2022-11-03T03:27:58.293Z,5.05
2022-11-03T03:30:26.414Z,4.20
2022-11-03T03:32:57.782Z,5.30
2022-11-03T03:35:30.748Z,5.35
2022-11-03T03:38:03.318Z,4.53
2022-11-03T03:40:35.493Z,7.40
2022-11-03T03:43:08.189Z,3.65
2022-11-03T03:45:37.017Z,4.05
2022-11-03T03:50:36.324Z,4.00
2022-11-03T03:53:06.505Z,4.15
2022-11-03T03:55:37.137Z,7.93
2022-11-03T03:58:07.906Z,4.93
2022-11-03T04:00:35.586Z,6.13
2022-11-03T04:03:03.100Z,3.55
2022-11-03T04:05:30.622Z,4.63
2022-11-03T04:07:58.510Z,6.28
2022-11-03T04:10:26.170Z,5.65
2022-11-03T04:13:11.609Z,5.53
2022-11-03T04:15:58.210Z,8.07
2022-11-03T04:18:43.526Z,4.95
2022-11-03T04:21:30.978Z,4.47
2022-11-03T04:24:00.185Z,3.58
2022-11-03T04:26:28.823Z,3.63
2022-11-03T04:28:57.123Z,3.67
2022-11-03T04:31:29.669Z,2.42
2022-11-03T04:33:57.451Z,8.30
2022-11-03T04:36:27.023Z,4.20
2022-11-03T04:38:54.517Z,5.78
2022-11-03T04:41:24.943Z,3.85
2022-11-03T04:43:53.661Z,5.10
2022-11-03T04:46:27.246Z,3.38
2022-11-03T04:48:55.722Z,4.18
2022-11-03T04:51:26.112Z,9.95
2022-11-03T04:53:56.339Z,5.25
2022-11-03T04:56:25.881Z,3.33
2022-11-03T04:58:54.217Z,3.92
2022-11-03T05:01:24.874Z,3.80
2022-11-03T05:03:55.838Z,5.05
2022-11-03T05:06:25.209Z,3.20
2022-11-03T05:08:56.004Z,4.40
2022-11-03T05:11:30.860Z,4.97
2022-11-03T05:14:00.331Z,5.78
2022-11-03T05:16:29.234Z,2.50
2022-11-03T05:18:58.479Z,5.35
2022-11-03T05:21:28.476Z,4.10
2022-11-03T05:23:59.571Z,3.55
2022-11-03T05:26:31.816Z,4.43
2022-11-03T05:29:03.111Z,5.45
2022-11-03T05:31:32.192Z,7.63
2022-11-03T05:34:02.856Z,4.55
2022-11-03T05:36:32.776Z,7.22
2022-11-03T05:39:22.156Z,3.55
2022-11-03T05:41:49.647Z,3.72
2022-11-03T05:44:29.892Z,2.47
2022-11-03T05:47:00.955Z,4.60
2022-11-03T05:49:32.079Z,6.57
2022-11-03T05:54:33.378Z,4.40
2022-11-03T05:57:02.246Z,6.05
2022-11-03T06:02:00.952Z,5.15
2022-11-03T06:04:33.672Z,5.22
2022-11-03T06:07:04.045Z,4.60
2022-11-03T06:09:34.916Z,7.00
2022-11-03T06:12:06.497Z,3.10
2022-11-03T06:14:34.730Z,3.08
2022-11-03T06:17:05.909Z,4.60
2022-11-03T06:19:39.095Z,4.65
2022-11-03T06:22:14.868Z,3.53
2022-11-03T06:24:43.538Z,3.90
2022-11-03T06:27:15.294Z,4.57
2022-11-03T06:29:46.727Z,3.15
2022-11-03T06:32:14.449Z,4.45
2022-11-03T06:34:46.514Z,3.78
2022-11-03T06:37:20.823Z,7.22
2022-11-03T06:39:49.589Z,3.03
2022-11-03T06:42:23.118Z,4.05
2022-11-03T06:47:23.943Z,8.95
2022-11-03T06:49:54.814Z,7.28
2022-11-03T06:52:28.011Z,4.93
2022-11-03T06:55:01.199Z,8.13
2022-11-03T06:57:31.629Z,5.07
2022-11-03T07:00:13.354Z,6.30
2022-11-03T07:03:08.271Z,7.32
2022-11-03T07:05:38.840Z,5.20
2022-11-03T07:08:22.215Z,5.00
2022-11-03T07:10:51.460Z,4.35
2022-11-03T07:13:23.550Z,4.75
2022-11-03T07:15:51.879Z,6.60
2022-11-03T07:18:23.964Z,4.63
2022-11-03T07:20:54.423Z,4.30
2022-11-03T07:23:25.527Z,5.53
2022-11-03T07:25:55.176Z,7.55
2022-11-03T07:28:35.993Z,6.63
2022-11-03T07:31:16.504Z,7.68
2022-11-03T07:33:44.391Z,7.20
2022-11-03T07:36:17.651Z,6.85
2022-11-03T07:38:48.910Z,9.90
2022-11-03T07:41:19.500Z,9.38
2022-11-03T07:43:54.260Z,4.85
2022-11-03T07:46:23.017Z,9.52
2022-11-03T07:48:52.851Z,11.90
2022-11-03T07:51:25.004Z,3.70
2022-11-03T07:53:55.894Z,7.50
2022-11-03T07:56:25.998Z,7.38
2022-11-03T07:58:56.851Z,6.75
2022-11-03T08:01:28.171Z,6.57
2022-11-03T08:03:59.405Z,8.38
2022-11-03T08:06:28.305Z,9.85
2022-11-03T08:13:57.123Z,3.80
2022-11-03T08:16:24.691Z,7.82
2022-11-03T08:18:52.163Z,6.57
2022-11-03T08:21:19.640Z,7.00
2022-11-03T08:23:48.471Z,2.35
2022-11-03T08:31:12.930Z,2.58
2022-11-03T08:33:42.083Z,3.42
2022-11-03T08:36:10.092Z,9.63
2022-11-03T08:38:38.012Z,9.98
2022-11-03T08:41:06.980Z,4.15
2022-11-03T08:43:34.451Z,7.93
2022-11-03T08:46:09.782Z,10.57
2022-11-03T08:48:40.715Z,1.80
2022-11-03T08:51:10.195Z,5.32
2022-11-03T08:53:38.410Z,6.88
2022-11-03T08:56:10.539Z,8.88
2022-11-03T08:58:40.649Z,5.75
2022-11-03T09:01:08.181Z,6.50
2022-11-03T09:03:35.887Z,5.53
2022-11-03T09:06:03.477Z,7.63
2022-11-03T09:11:19.754Z,6.55
2022-11-03T09:23:36.879Z,6.50
2022-11-03T09:26:06.161Z,5.30
2022-11-03T09:28:34.963Z,2.17
2022-11-03T09:40:52.016Z,5.68
2022-11-03T09:43:20.012Z,5.78
2022-11-03T09:45:48.935Z,9.02
2022-11-03T09:48:16.649Z,1.65
2022-11-03T09:50:44.279Z,13.70
2022-11-03T09:53:13.163Z,11.13
2022-11-03T09:55:41.236Z,2.22
2022-11-03T09:58:13.628Z,5.13
2022-11-03T10:00:41.265Z,7.38
2022-11-03T10:03:13.220Z,5.97
2022-11-03T10:05:41.303Z,8.40
2022-11-03T10:08:21.493Z,7.43
2022-11-03T10:10:50.524Z,8.13
2022-11-03T10:13:26.372Z,7.20
2022-11-03T10:15:54.123Z,7.13
2022-11-03T10:18:22.991Z,12.20
2022-11-03T10:20:50.629Z,8.82
2022-11-03T10:23:18.092Z,7.45
2022-11-03T10:25:46.402Z,2.60
2022-11-03T10:28:22.271Z,9.25
2022-11-03T10:33:52.954Z,7.03
2022-11-03T10:36:25.552Z,22.10
2022-11-03T10:38:53.953Z,8.68
2022-11-03T10:41:22.781Z,9.73
2022-11-03T10:44:05.631Z,13.45
2022-11-03T10:46:50.184Z,12.23
2022-11-03T10:49:21.199Z,7.15
2022-11-03T10:51:51.161Z,5.18
2022-11-03T10:54:20.732Z,9.25
2022-11-03T10:56:49.771Z,4.95
2022-11-03T10:59:19.435Z,6.10
2022-11-03T11:01:47.284Z,5.53
2022-11-03T11:04:17.382Z,4.45
2022-11-03T11:06:47.022Z,6.45
2022-11-03T11:09:18.404Z,6.78
2022-11-03T11:12:00.033Z,4.75
2022-11-03T11:14:39.244Z,6.72
2022-11-03T11:17:13.016Z,6.55
2022-11-03T11:20:21.092Z,7.78
2022-11-03T11:22:51.242Z,6.72
2022-11-03T11:25:19.535Z,6.15
2022-11-03T11:28:19.496Z,7.85
2022-11-03T11:31:23.347Z,9.30
2022-11-03T11:33:50.974Z,9.25
2022-11-03T11:36:24.440Z,8.02
2022-11-03T11:38:58.978Z,2.47
2022-11-03T11:41:59.609Z,9.93
2022-11-03T11:44:49.151Z,4.97
2022-11-03T11:47:30.241Z,12.25
2022-11-03T11:50:31.275Z,5.93
2022-11-03T11:53:01.871Z,9.38
2022-11-03T11:55:39.250Z,6.63
2022-11-03T11:58:15.544Z,9.30
2022-11-03T12:00:53.068Z,3.88
2022-11-03T12:03:26.462Z,8.93
2022-11-03T12:05:54.006Z,11.07
2022-11-03T12:08:28.504Z,9.43
2022-11-03T12:10:59.166Z,11.32
2022-11-03T12:13:41.752Z,6.80
2022-11-03T12:16:09.877Z,10.35
2022-11-03T12:18:41.684Z,11.52
2022-11-03T12:21:14.288Z,10.63
2022-11-03T12:23:43.359Z,9.43
2022-11-03T12:26:18.522Z,10.60
2022-11-03T12:28:46.218Z,10.50
2022-11-03T12:31:13.859Z,8.43
2022-11-03T12:33:41.359Z,11.48
2022-11-03T12:36:09.861Z,10.65
2022-11-03T12:38:37.536Z,8.73
2022-11-03T12:41:19.504Z,9.55
2022-11-03T12:43:49.475Z,11.15
2022-11-03T12:46:17.576Z,8.82
2022-11-03T12:48:45.078Z,8.00
2022-11-03T12:51:13.655Z,14.45
2022-11-03T12:56:09.878Z,8.80
2022-11-03T12:58:38.171Z,13.30
2022-11-03T13:01:07.927Z,6.28
2022-11-03T13:03:36.950Z,16.80
2022-11-03T13:06:09.821Z,14.65
2022-11-03T13:08:37.950Z,12.13
2022-11-03T13:11:26.071Z,10.27
2022-11-03T13:13:54.065Z,14.35
2022-11-03T13:16:23.155Z,11.40
2022-11-03T13:18:50.644Z,13.50
2022-11-03T13:21:18.439Z,11.88
2022-11-03T13:23:46.181Z,12.13
2022-11-03T13:26:13.647Z,16.52
2022-11-03T13:28:41.550Z,16.67
2022-11-03T13:31:09.295Z,16.50
2022-11-03T13:33:38.104Z,6.45
2022-11-03T13:36:06.399Z,11.15
2022-11-03T13:38:34.083Z,19.23
2022-11-03T13:41:07.246Z,18.25
2022-11-03T13:43:36.399Z,15.95
2022-11-03T13:46:05.031Z,17.15
2022-11-03T13:51:21.742Z,21.77
2022-11-03T14:04:44.824Z,17.10
2022-11-03T14:07:13.937Z,15.45
2022-11-03T14:09:41.976Z,8.80
2022-11-03T14:12:27.236Z,15.85
2022-11-03T14:14:54.784Z,20.73
2022-11-03T14:17:22.246Z,17.15
2022-11-03T14:19:52.718Z,21.67
2022-11-03T14:22:23.329Z,2.17
2022-11-03T14:24:51.505Z,16.98
2022-11-03T14:27:19.795Z,14.27
2022-11-03T14:29:49.619Z,15.18
2022-11-03T14:32:18.313Z,18.02
2022-11-03T14:37:13.839Z,13.88
2022-11-03T14:39:43.031Z,6.18
2022-11-03T14:42:15.207Z,11.85
2022-11-03T14:44:44.507Z,12.65
2022-11-03T14:47:13.654Z,16.80
2022-11-03T14:49:41.345Z,12.13
2022-11-03T14:52:08.980Z,11.88
2022-11-03T14:54:37.034Z,12.55
2022-11-03T14:57:06.355Z,16.75
2022-11-03T14:59:34.772Z,16.40
2022-11-03T15:02:03.327Z,11.73
2022-11-03T15:04:31.191Z,14.13
2022-11-03T15:06:58.709Z,13.00
2022-11-03T15:09:26.177Z,12.63
2022-11-03T15:11:54.093Z,11.85
2022-11-03T15:14:22.896Z,14.52
2022-11-03T15:16:50.371Z,14.38
2022-11-03T15:19:17.916Z,14.77
2022-11-03T15:21:45.458Z,13.38
2022-11-03T15:27:00.386Z,12.57
2022-11-03T15:29:29.186Z,12.60
2022-11-03T15:31:56.661Z,11.70
2022-11-03T15:34:24.228Z,11.55
2022-11-03T15:36:51.740Z,14.45
2022-11-03T15:39:19.256Z,12.40
2022-11-03T15:41:46.721Z,8.50
2022-11-03T15:44:14.220Z,12.43
2022-11-03T15:46:43.065Z,14.57
2022-11-03T15:49:10.550Z,12.13
2022-11-03T15:51:38.056Z,12.65
2022-11-03T15:54:05.583Z,16.65
2022-11-03T15:56:33.063Z,11.35
2022-11-03T15:59:00.562Z,12.80
2022-11-03T16:01:28.259Z,11.25
2022-11-03T16:03:57.195Z,13.20
2022-11-03T16:06:46.462Z,13.70
2022-11-03T16:09:12.573Z,10.60
2022-11-03T16:11:40.070Z,11.20
2022-11-03T16:14:07.561Z,11.55
2022-11-03T16:16:35.034Z,16.20
2022-11-03T16:19:04.231Z,13.15
2022-11-03T16:21:31.702Z,13.30
2022-11-03T16:23:59.212Z,11.70
2022-11-03T16:26:26.738Z,14.60
2022-11-03T16:28:54.256Z,16.73
2022-11-03T16:31:21.727Z,15.45
2022-11-03T16:33:49.189Z,14.32
2022-11-03T16:36:18.577Z,17.77
2022-11-03T16:38:46.086Z,10.93
2022-11-03T16:41:13.770Z,11.52
2022-11-03T16:43:41.227Z,11.35
2022-11-03T16:46:08.702Z,13.68
2022-11-03T16:48:36.162Z,13.02
2022-11-03T16:51:03.613Z,14.80
2022-11-03T16:53:32.466Z,12.90
2022-11-03T16:56:00.015Z,12.85
2022-11-03T16:58:27.540Z,14.02
2022-11-03T17:00:55.197Z,10.50
2022-11-03T17:03:22.761Z,15.45
2022-11-03T17:05:50.280Z,10.07
2022-11-03T17:08:46.904Z,15.07
2022-11-03T17:11:06.988Z,13.70
2022-11-03T17:13:34.500Z,12.50
2022-11-03T17:16:01.993Z,12.18
2022-11-03T17:18:29.739Z,14.90
2022-11-03T17:20:57.391Z,13.20
2022-11-03T17:23:24.884Z,15.20
2022-11-03T17:25:52.406Z,17.70
2022-11-03T17:28:21.316Z,17.67
2022-11-03T17:30:48.844Z,18.35
2022-11-03T17:33:19.566Z,15.75
2022-11-03T17:35:47.647Z,13.88
2022-11-03T17:38:17.160Z,11.23
2022-11-03T17:40:46.827Z,11.65
2022-11-03T17:43:20.315Z,10.02
2022-11-03T17:45:49.641Z,8.40
2022-11-03T17:48:17.182Z,13.23
2022-11-03T17:50:47.468Z,13.20
2022-11-03T17:53:21.900Z,13.35
2022-11-03T17:56:08.898Z,14.40
2022-11-03T17:58:44.846Z,15.93
2022-11-03T18:01:20.227Z,12.73
2022-11-03T18:03:47.814Z,12.85
2022-11-03T18:06:18.876Z,13.70
2022-11-03T18:08:46.416Z,16.17
2022-11-03T18:11:30.728Z,13.07
2022-11-03T18:13:58.412Z,17.63
2022-11-03T18:16:27.465Z,13.05
2022-11-03T18:18:55.109Z,14.82
2022-11-03T18:21:24.196Z,16.65
2022-11-03T18:23:51.732Z,18.38
2022-11-03T18:26:20.678Z,14.07
2022-11-03T18:28:49.169Z,18.23
2022-11-03T18:31:21.620Z,19.55
2022-11-03T18:33:50.736Z,14.57
2022-11-03T18:36:19.546Z,15.35
2022-11-03T18:38:48.355Z,18.45
2022-11-03T18:41:39.205Z,18.63
2022-11-03T18:44:14.061Z,14.85
2022-11-03T18:49:10.319Z,19.42
2022-11-03T18:51:38.303Z,17.48
2022-11-03T18:54:06.480Z,18.38
2022-11-03T18:56:37.261Z,17.23
2022-11-03T18:59:06.071Z,15.43
2022-11-03T19:01:33.733Z,14.52
2022-11-03T19:04:01.656Z,19.13
2022-11-03T19:06:30.509Z,8.00
2022-11-03T19:09:00.318Z,13.80
2022-11-03T19:11:28.216Z,14.65
2022-11-03T19:13:55.937Z,12.75
2022-11-03T19:16:24.925Z,17.55
2022-11-03T19:18:52.743Z,18.63
2022-11-03T19:21:23.346Z,18.08
2022-11-03T19:23:58.162Z,15.75
2022-11-03T19:26:30.288Z,15.45
2022-11-03T19:29:01.272Z,18.13
2022-11-03T19:31:33.423Z,20.38
2022-11-03T19:34:01.719Z,21.55
2022-11-03T19:36:31.208Z,19.35
2022-11-03T19:39:00.981Z,17.55
2022-11-03T19:41:46.292Z,20.35
2022-11-03T19:44:14.539Z,13.75
2022-11-03T19:46:42.867Z,18.50
2022-11-03T19:49:14.481Z,14.77
2022-11-03T19:51:42.181Z,16.90
2022-11-03T19:54:16.377Z,20.13
2022-11-03T19:56:43.960Z,14.10
2022-11-03T19:59:13.294Z,14.30
2022-11-03T20:01:40.918Z,11.15
2022-11-03T20:04:09.475Z,19.17
2022-11-03T20:06:38.098Z,16.75
2022-11-03T20:09:08.389Z,12.93
2022-11-03T20:11:37.864Z,14.23
2022-11-03T20:14:05.732Z,12.15
2022-11-03T20:16:33.216Z,14.65
2022-11-03T20:19:00.717Z,17.02
2022-11-03T20:21:34.223Z,13.90
2022-11-03T20:24:02.253Z,16.63
2022-11-03T20:26:30.110Z,18.48
2022-11-03T20:29:00.117Z,15.48
2022-11-03T20:31:27.755Z,13.38
2022-11-03T20:33:55.228Z,14.43
2022-11-03T20:36:22.730Z,15.40
2022-11-03T20:38:53.211Z,16.65
2022-11-03T20:41:20.816Z,16.00
2022-11-03T20:43:49.591Z,14.27
2022-11-03T20:46:29.008Z,4.80
2022-11-03T20:48:57.491Z,14.10
2022-11-03T20:51:27.733Z,14.93
2022-11-03T20:53:55.822Z,18.73
2022-11-03T20:56:25.237Z,15.75
2022-11-03T20:58:53.517Z,17.38
2022-11-03T21:01:27.475Z,15.20
2022-11-03T21:04:00.290Z,24.23
2022-11-03T21:06:29.943Z,19.20
2022-11-03T21:08:57.623Z,18.38
2022-11-03T21:11:40.343Z,17.05
2022-11-03T21:14:15.357Z,15.95
2022-11-03T21:17:01.987Z,17.52
2022-11-03T21:19:49.196Z,14.65
2022-11-03T21:22:50.210Z,16.88
2022-11-03T21:25:11.430Z,17.67
2022-11-03T21:27:41.720Z,15.32
2022-11-03T21:30:11.645Z,24.25
2022-11-03T21:32:40.568Z,21.30
2022-11-03T21:35:08.876Z,13.30
2022-11-03T21:37:36.376Z,14.98
2022-11-03T21:40:04.021Z,16.95
2022-11-03T21:42:49.311Z,17.15
2022-11-03T21:45:18.620Z,15.57
2022-11-03T21:48:13.231Z,18.08
2022-11-03T21:50:40.367Z,16.17
2022-11-03T21:53:08.304Z,16.30
2022-11-03T21:55:36.704Z,16.45
2022-11-03T21:58:04.982Z,18.67
2022-11-03T22:00:33.104Z,17.55
2022-11-03T22:03:02.294Z,13.90
2022-11-03T22:05:30.080Z,20.98
2022-11-03T22:07:57.587Z,14.02
2022-11-03T22:10:25.893Z,16.98
2022-11-03T22:12:53.402Z,17.08
2022-11-03T22:15:38.454Z,19.55
2022-11-03T22:18:08.154Z,18.58
2022-11-03T22:20:55.073Z,18.08
2022-11-03T22:23:40.315Z,16.95
2022-11-03T22:26:28.465Z,15.25
2022-11-03T22:29:12.432Z,15.35
2022-11-03T22:31:42.634Z,15.50
2022-11-03T22:34:29.389Z,15.52
2022-11-03T22:36:56.926Z,15.05
2022-11-03T22:39:42.309Z,15.27
2022-11-03T22:42:29.328Z,14.57
2022-11-03T22:47:41.511Z,16.85
2022-11-03T22:50:10.882Z,12.07
2022-11-03T22:52:38.393Z,12.63
2022-11-03T22:55:05.390Z,12.18
2022-11-03T22:57:32.957Z,13.32
2022-11-03T23:00:00.456Z,14.80
2022-11-03T23:02:27.961Z,12.52
2022-11-03T23:04:55.483Z,11.10
2022-11-03T23:07:29.941Z,10.82
2022-11-03T23:09:59.113Z,14.85
2022-11-03T23:12:26.614Z,15.07
2022-11-03T23:15:11.943Z,11.82
2022-11-03T23:17:57.278Z,10.90
2022-11-03T23:20:42.623Z,12.77
2022-11-03T23:23:31.505Z,9.65
2022-11-03T23:25:57.978Z,9.10
2022-11-03T23:28:25.496Z,13.23
2022-11-03T23:30:53.013Z,9.88
2022-11-03T23:33:20.471Z,8.73
2022-11-03T23:35:47.982Z,14.15
2022-11-03T23:38:16.805Z,11.13
2022-11-03T23:40:44.314Z,10.88
2022-11-03T23:43:11.858Z,10.48
2022-11-03T23:45:56.963Z,15.63
2022-11-03T23:48:42.745Z,11.48
2022-11-03T23:51:10.222Z,8.27
2022-11-03T23:53:39.073Z,11.57
2022-11-03T23:56:25.242Z,10.10
2022-11-03T23:58:53.146Z,10.50
